Time;durP1;ratioP1;P1;durP2;ratioP2;P2;SDS_P1;SDS_P2;PMS_P1;PMS_P2;Temp;Humidity;BMP_temperature;BMP_pressure;BME280_temperature;BME280_humidity;BME280_pressure;Samples;Min_cycle;Max_cycle;Signal;HPM_P1;HPM_P2
2022/05/30 00:02:18;;;;;;;6.50;2.87;;;12.70;1.00;;;;;;5050136;28;20546;-76
2022/05/30 00:04:45;;;;;;;6.57;2.60;;;12.60;1.00;;;;;;5059332;28;20523;-74
2022/05/30 00:07:12;;;;;;;5.77;2.50;;;12.60;1.00;;;;;;5061967;28;20522;-77
2022/05/30 00:09:39;;;;;;;6.80;3.00;;;12.50;1.00;;;;;;5061960;28;20588;-76
2022/05/30 00:12:07;;;;;;;6.20;2.80;;;12.50;1.00;;;;;;5061543;28;21273;-76
2022/05/30 00:14:34;;;;;;;5.60;2.70;;;12.50;1.00;;;;;;5062847;28;20969;-76
2022/05/30 00:17:01;;;;;;;6.30;2.80;;;12.50;1.00;;;;;;5061714;28;20608;-76
2022/05/30 00:19:29;;;;;;;5.57;2.40;;;12.40;1.00;;;;;;5062337;28;20472;-76
2022/05/30 00:21:56;;;;;;;7.03;3.33;;;12.30;1.00;;;;;;5061297;28;20565;-75
2022/05/30 00:24:23;;;;;;;9.97;3.10;;;12.30;1.00;;;;;;5061092;28;20455;-75
2022/05/30 00:26:49;;;;;;;5.10;2.97;;;12.20;1.00;;;;;;5059933;28;20450;-76
2022/05/30 00:29:16;;;;;;;6.23;2.87;;;12.20;1.00;;;;;;5059226;28;20555;-76
2022/05/30 00:31:43;;;;;;;5.73;2.33;;;12.20;1.00;;;;;;5059067;28;20516;-77
2022/05/30 00:34:09;;;;;;;7.17;6.33;;;12.20;1.00;;;;;;5057664;28;20463;-76
2022/05/30 00:36:38;;;;;;;7.23;2.93;;;12.20;1.00;;;;;;5061937;28;20894;-76
2022/05/30 00:39:04;;;;;;;6.47;3.37;;;12.30;1.00;;;;;;5062910;28;20457;-76
2022/05/30 00:41:31;;;;;;;6.30;2.63;;;12.30;1.00;;;;;;5061070;28;20493;-76
2022/05/30 00:43:58;;;;;;;6.70;2.90;;;12.30;1.00;;;;;;5060386;28;20494;-74
2022/05/30 00:46:25;;;;;;;5.70;2.67;;;12.50;1.00;;;;;;5064270;28;20540;-75
2022/05/30 00:48:54;;;;;;;5.97;2.90;;;12.50;1.00;;;;;;5059067;28;20525;-75
2022/05/30 00:51:25;;;;;;;5.63;3.20;;;12.60;1.00;;;;;;5062836;28;20513;-75
2022/05/30 00:53:57;;;;;;;6.33;3.40;;;12.60;1.00;;;;;;5059586;28;20446;-76
2022/05/30 00:56:27;;;;;;;6.10;2.70;;;12.60;1.00;;;;;;5060597;28;20465;-76
2022/05/30 00:58:53;;;;;;;5.27;2.57;;;12.60;1.00;;;;;;5058830;28;20576;-76
2022/05/30 01:01:21;;;;;;;5.57;2.83;;;12.70;1.00;;;;;;5059549;28;22636;-76
2022/05/30 01:06:36;;;;;;;5.90;2.60;;;12.70;1.00;;;;;;5051108;28;20549;-74
2022/05/30 01:09:08;;;;;;;6.43;2.83;;;12.70;1.00;;;;;;5061787;28;20517;-76
2022/05/30 01:11:53;;;;;;;5.60;2.90;;;12.80;1.00;;;;;;5062455;28;20490;-76
2022/05/30 01:14:20;;;;;;;4.87;2.67;;;12.80;1.00;;;;;;5061376;28;20460;-76
2022/05/30 01:16:47;;;;;;;5.70;2.30;;;12.80;1.00;;;;;;5058869;28;20546;-76
2022/05/30 01:19:27;;;;;;;5.30;2.10;;;12.80;1.00;;;;;;5061563;28;20469;-76
2022/05/30 01:22:07;;;;;;;5.30;2.80;;;12.80;1.00;;;;;;5062841;28;20603;-75
2022/05/30 01:24:44;;;;;;;5.57;2.37;;;12.90;1.00;;;;;;5067646;28;20457;-76
2022/05/30 01:27:24;;;;;;;5.83;2.43;;;12.80;1.00;;;;;;5063595;28;20464;-76
2022/05/30 01:29:57;;;;;;;6.87;3.20;;;12.90;1.00;;;;;;5062623;28;20414;-76
2022/05/30 01:32:25;;;;;;;5.90;2.60;;;12.90;1.00;;;;;;5066144;28;20909;-75
2022/05/30 01:34:51;;;;;;;9.30;2.90;;;12.90;1.00;;;;;;5064355;28;20972;-75
2022/05/30 01:37:18;;;;;;;9.27;3.10;;;12.90;1.00;;;;;;5063744;28;20463;-76
2022/05/30 01:39:45;;;;;;;6.40;2.90;;;12.80;1.00;;;;;;5065060;28;21213;-75
2022/05/30 01:42:13;;;;;;;6.57;3.07;;;12.80;1.00;;;;;;5064823;28;21308;-76
2022/05/30 01:44:39;;;;;;;6.30;2.60;;;12.80;1.00;;;;;;5063282;28;20617;-76
2022/05/30 01:47:08;;;;;;;5.80;3.10;;;12.80;1.00;;;;;;5063596;28;20506;-76
2022/05/30 01:49:35;;;;;;;6.47;2.97;;;12.90;1.00;;;;;;5058585;28;20535;-76
2022/05/30 01:52:02;;;;;;;6.67;3.23;;;12.80;1.00;;;;;;5059227;28;20535;-76
2022/05/30 01:54:29;;;;;;;5.03;2.53;;;12.70;1.00;;;;;;5061954;28;20545;-76
2022/05/30 01:56:55;;;;;;;5.40;3.07;;;12.70;1.00;;;;;;5062540;28;20525;-76
2022/05/30 01:59:22;;;;;;;6.47;2.67;;;12.70;1.00;;;;;;5063764;28;20997;-76
2022/05/30 02:01:49;;;;;;;5.33;2.90;;;12.60;1.00;;;;;;5060558;28;20576;-75
2022/05/30 02:04:18;;;;;;;5.43;2.97;;;12.60;1.00;;;;;;5063684;28;20545;-76
2022/05/30 02:06:45;;;;;;;6.20;3.33;;;12.50;1.00;;;;;;5064210;28;20456;-76
2022/05/30 02:09:12;;;;;;;5.47;3.20;;;12.40;1.00;;;;;;5062229;28;20440;-76
2022/05/30 02:11:39;;;;;;;6.63;2.90;;;12.40;1.00;;;;;;5064223;28;20502;-76
2022/05/30 02:14:05;;;;;;;5.87;3.43;;;12.30;1.00;;;;;;5062956;28;20535;-76
2022/05/30 02:19:21;;;;;;;7.90;3.80;;;12.30;1.00;;;;;;5062847;28;20457;-76
2022/05/30 02:21:48;;;;;;;7.30;3.47;;;12.30;1.00;;;;;;5062146;28;20537;-76
2022/05/30 02:24:15;;;;;;;8.03;3.53;;;12.20;1.00;;;;;;5063177;28;20499;-75
2022/05/30 02:26:42;;;;;;;6.80;3.47;;;12.20;1.00;;;;;;5061686;28;20463;-76
2022/05/30 02:29:08;;;;;;;6.13;3.33;;;12.20;1.00;;;;;;5061007;28;20466;-75
2022/05/30 02:31:35;;;;;;;7.40;3.87;;;12.10;1.00;;;;;;5060755;28;20548;-75
2022/05/30 02:36:51;;;;;;;6.47;4.27;;;12.10;1.00;;;;;;5059665;28;21254;-75
2022/05/30 02:39:20;;;;;;;5.70;3.07;;;12.10;1.00;;;;;;5061600;28;20486;-75
2022/05/30 02:41:47;;;;;;;7.30;4.20;;;12.10;1.00;;;;;;5061374;28;20540;-75
2022/05/30 02:44:14;;;;;;;8.67;4.87;;;12.00;1.00;;;;;;5065391;28;20458;-75
2022/05/30 02:46:41;;;;;;;7.57;4.50;;;11.90;1.00;;;;;;5062927;28;20527;-75
2022/05/30 02:49:08;;;;;;;8.10;4.50;;;11.80;1.00;;;;;;5063442;28;20598;-75
2022/05/30 02:51:35;;;;;;;8.40;4.53;;;11.70;1.00;;;;;;5062627;28;20480;-75
2022/05/30 02:54:03;;;;;;;9.40;4.80;;;11.70;1.00;;;;;;5063418;28;20767;-75
2022/05/30 02:56:30;;;;;;;8.37;4.37;;;11.70;1.00;;;;;;5064353;28;21668;-75
2022/05/30 02:58:58;;;;;;;8.30;4.03;;;11.70;1.00;;;;;;5062627;28;20452;-75
2022/05/30 03:01:25;;;;;;;7.50;4.60;;;11.70;1.00;;;;;;5062577;28;20668;-75
2022/05/30 03:03:52;;;;;;;7.80;5.10;;;11.60;1.00;;;;;;5059790;28;20975;-75
2022/05/30 03:06:19;;;;;;;7.70;4.40;;;11.60;1.00;;;;;;5062381;28;20527;-75
2022/05/30 03:08:46;;;;;;;7.97;5.37;;;11.50;1.00;;;;;;5063880;28;20502;-75
2022/05/30 03:11:14;;;;;;;6.80;4.47;;;11.60;1.00;;;;;;5064173;28;20540;-76
2022/05/30 03:13:40;;;;;;;10.40;5.30;;;11.60;1.00;;;;;;5063520;28;20519;-75
2022/05/30 03:16:07;;;;;;;7.03;4.73;;;11.60;1.00;;;;;;5063351;28;21288;-76
2022/05/30 03:18:33;;;;;;;9.83;5.30;;;11.70;1.00;;;;;;5062038;28;20851;-76
2022/05/30 03:21:00;;;;;;;8.00;4.97;;;11.70;1.00;;;;;;5060498;28;20502;-76
2022/05/30 03:23:27;;;;;;;10.50;5.77;;;11.70;1.00;;;;;;5060689;28;20470;-75
2022/05/30 03:25:54;;;;;;;9.63;5.70;;;11.70;1.00;;;;;;5063051;28;20535;-76
2022/05/30 03:28:22;;;;;;;8.47;5.60;;;11.80;1.00;;;;;;5062869;28;20505;-75
2022/05/30 03:30:51;;;;;;;11.47;6.80;;;11.80;1.00;;;;;;5052260;28;20460;-76
2022/05/30 03:33:18;;;;;;;13.30;7.73;;;11.90;1.00;;;;;;5076279;28;21272;-75
2022/05/30 03:35:45;;;;;;;10.30;6.30;;;11.90;1.00;;;;;;5061714;28;20485;-75
2022/05/30 03:38:11;;;;;;;9.50;6.80;;;11.90;1.00;;;;;;5060803;28;20991;-74
2022/05/30 03:40:38;;;;;;;8.50;6.20;;;11.80;1.00;;;;;;5062822;28;20483;-76
2022/05/30 03:43:07;;;;;;;9.77;7.03;;;11.80;1.00;;;;;;5062649;28;20761;-73
2022/05/30 03:45:36;;;;;;;12.80;7.67;;;11.80;1.00;;;;;;5063812;28;20965;-74
2022/05/30 03:48:04;;;;;;;13.47;6.50;;;11.80;1.00;;;;;;5063761;28;20467;-74
2022/05/30 03:50:32;;;;;;;10.53;7.30;;;11.80;1.00;;;;;;5060489;28;20443;-75
2022/05/30 03:53:04;;;;;;;9.07;6.97;;;11.80;1.00;;;;;;5063353;28;20512;-76
2022/05/30 03:55:32;;;;;;;13.13;7.03;;;11.90;1.00;;;;;;5055681;28;20487;-75
2022/05/30 03:58:00;;;;;;;10.27;8.10;;;12.00;1.00;;;;;;5063381;28;20464;-75
2022/05/30 04:00:27;;;;;;;9.90;7.23;;;12.10;1.00;;;;;;5059270;28;20466;-76
2022/05/30 04:02:55;;;;;;;16.20;7.60;;;12.20;1.00;;;;;;5054881;28;20477;-76
2022/05/30 04:05:23;;;;;;;13.27;11.93;;;12.30;1.00;;;;;;5060738;28;20495;-74
2022/05/30 04:07:50;;;;;;;11.00;8.00;;;12.40;1.00;;;;;;5060118;28;20553;-74
2022/05/30 04:10:19;;;;;;;11.90;7.73;;;12.40;1.00;;;;;;5065853;28;20467;-76
2022/05/30 04:12:45;;;;;;;12.13;7.40;;;12.50;1.00;;;;;;5061780;28;21193;-76
2022/05/30 04:15:18;;;;;;;8.83;7.57;;;12.60;1.00;;;;;;5060033;28;21752;-74
2022/05/30 04:17:45;;;;;;;8.70;7.13;;;12.70;1.00;;;;;;5058482;28;20505;-76
2022/05/30 04:20:15;;;;;;;11.90;7.47;;;12.80;1.00;;;;;;5061715;28;20477;-76
2022/05/30 04:22:44;;;;;;;9.60;7.07;;;12.90;1.00;;;;;;5059759;28;20526;-75
2022/05/30 04:25:11;;;;;;;10.37;7.30;;;12.90;1.00;;;;;;5040078;28;20516;-75
2022/05/30 04:27:38;;;;;;;11.97;8.47;;;12.90;1.00;;;;;;5054354;28;20508;-74
2022/05/30 04:30:09;;;;;;;12.53;8.70;;;12.90;1.00;;;;;;5064289;28;20944;-76
2022/05/30 04:32:37;;;;;;;14.63;10.17;;;12.90;1.00;;;;;;5061168;28;20469;-75
2022/05/30 04:35:05;;;;;;;9.63;8.20;;;12.80;1.00;;;;;;5061005;28;20907;-75
2022/05/30 04:37:33;;;;;;;10.50;8.33;;;12.80;1.00;;;;;;5061208;28;20573;-76
2022/05/30 04:40:00;;;;;;;13.73;8.70;;;12.80;1.00;;;;;;5061052;28;20485;-75
2022/05/30 04:42:26;;;;;;;11.10;8.87;;;12.80;1.00;;;;;;5067608;28;20537;-74
2022/05/30 04:44:53;;;;;;;16.53;11.33;;;12.70;1.00;;;;;;5063535;28;20469;-75
2022/05/30 04:47:20;;;;;;;11.07;7.97;;;12.70;1.00;;;;;;5062769;28;20486;-76
2022/05/30 04:49:49;;;;;;;10.57;8.23;;;12.70;1.00;;;;;;5054492;28;20478;-75
2022/05/30 04:52:15;;;;;;;11.90;8.00;;;12.70;1.00;;;;;;5064723;28;20442;-75
2022/05/30 04:54:43;;;;;;;12.47;9.43;;;12.60;1.00;;;;;;5066382;28;20953;-75
2022/05/30 04:57:12;;;;;;;12.30;8.80;;;12.70;1.00;;;;;;5064579;28;20465;-75
2022/05/30 04:59:40;;;;;;;13.03;8.80;;;12.70;1.00;;;;;;5066857;28;20471;-78
2022/05/30 05:02:09;;;;;;;12.33;9.57;;;12.70;1.00;;;;;;5066712;28;20453;-76
2022/05/30 05:04:38;;;;;;;10.97;9.40;;;12.70;1.00;;;;;;5066533;28;20496;-75
2022/05/30 05:07:06;;;;;;;15.37;10.30;;;12.60;1.00;;;;;;5064382;28;21251;-75
2022/05/30 05:09:41;;;;;;;15.00;11.63;;;12.60;1.00;;;;;;5063926;28;20470;-76
2022/05/30 05:12:09;;;;;;;12.90;10.10;;;12.60;1.00;;;;;;5063164;28;21227;-74
2022/05/30 05:14:36;;;;;;;13.17;9.20;;;12.60;1.00;;;;;;5064965;28;21200;-73
2022/05/30 05:17:05;;;;;;;14.63;10.40;;;12.50;1.00;;;;;;5062442;28;20457;-74
2022/05/30 05:19:33;;;;;;;16.57;10.40;;;12.50;1.00;;;;;;5062232;28;21074;-74
2022/05/30 05:22:00;;;;;;;17.73;10.53;;;12.60;1.00;;;;;;5060225;28;20486;-74
2022/05/30 05:24:27;;;;;;;13.30;9.90;;;12.60;1.00;;;;;;5066889;28;20979;-74
2022/05/30 05:26:55;;;;;;;14.37;9.80;;;12.60;1.00;;;;;;5066964;28;20570;-76
2022/05/30 05:29:25;;;;;;;12.90;8.57;;;12.70;1.00;;;;;;5068046;28;21025;-74
2022/05/30 05:31:52;;;;;;;19.77;8.43;;;12.70;1.00;;;;;;5058537;28;20952;-76
2022/05/30 05:34:19;;;;;;;12.10;6.50;;;12.70;1.00;;;;;;5069494;28;20873;-75
2022/05/30 05:36:47;;;;;;;15.93;8.23;;;12.80;1.00;;;;;;5070264;28;20519;-75
2022/05/30 05:39:16;;;;;;;13.43;7.87;;;12.80;1.00;;;;;;5071704;28;20493;-77
2022/05/30 05:41:44;;;;;;;15.30;6.63;;;12.80;1.00;;;;;;5071284;28;20432;-76
2022/05/30 05:44:11;;;;;;;13.30;7.43;;;12.90;1.00;;;;;;5067107;28;20453;-76
2022/05/30 05:46:40;;;;;;;13.73;8.27;;;12.90;1.00;;;;;;5068047;28;20471;-76
2022/05/30 05:49:09;;;;;;;11.30;8.03;;;13.00;1.00;;;;;;5072377;28;20459;-76
2022/05/30 05:51:38;;;;;;;14.27;8.70;;;13.10;1.00;;;;;;5061399;28;20600;-77
2022/05/30 05:54:05;;;;;;;15.23;7.87;;;13.20;1.00;;;;;;5072166;28;20470;-77
2022/05/30 05:56:35;;;;;;;12.90;9.30;;;13.30;1.00;;;;;;5066764;28;20463;-75
2022/05/30 05:59:02;;;;;;;11.30;7.20;;;13.30;1.00;;;;;;5067405;28;20478;-75
2022/05/30 06:01:32;;;;;;;10.87;6.90;;;13.40;1.00;;;;;;5065411;28;20937;-76
2022/05/30 06:04:03;;;;;;;14.37;8.00;;;13.40;1.00;;;;;;5072660;28;21954;-76
2022/05/30 06:06:30;;;;;;;12.63;7.87;;;13.40;1.00;;;;;;5067116;28;20825;-75
2022/05/30 06:08:59;;;;;;;16.03;7.17;;;13.40;1.00;;;;;;5067913;27;20475;-75
2022/05/30 06:11:26;;;;;;;14.67;6.77;;;13.50;1.00;;;;;;5068544;28;20452;-75
2022/05/30 06:13:54;;;;;;;12.20;7.57;;;13.50;1.00;;;;;;5068014;28;20472;-76
2022/05/30 06:16:23;;;;;;;12.40;6.50;;;13.60;1.00;;;;;;5069802;28;20459;-76
2022/05/30 06:18:52;;;;;;;9.63;5.97;;;13.70;1.00;;;;;;5067370;28;20487;-75
2022/05/30 06:21:23;;;;;;;11.50;5.50;;;13.80;1.00;;;;;;5069628;28;20571;-76
2022/05/30 06:23:49;;;;;;;10.07;5.20;;;13.80;1.00;;;;;;5068179;28;20470;-75
2022/05/30 06:26:17;;;;;;;9.00;4.83;;;13.70;1.00;;;;;;5069880;28;20831;-75
2022/05/30 06:28:44;;;;;;;10.90;4.97;;;13.60;1.00;;;;;;5064827;28;20562;-76
2022/05/30 06:31:12;;;;;;;10.60;5.47;;;13.60;1.00;;;;;;5065042;28;20467;-76
2022/05/30 06:33:40;;;;;;;9.53;5.00;;;13.60;1.00;;;;;;5066172;28;20511;-75
2022/05/30 06:36:08;;;;;;;9.97;5.33;;;13.60;1.00;;;;;;5071147;28;20442;-77
2022/05/30 06:38:37;;;;;;;11.87;5.10;;;13.60;1.00;;;;;;5067713;28;20824;-77
2022/05/30 06:41:17;;;;;;;9.47;4.20;;;13.60;1.00;;;;;;5073918;28;20532;-76
2022/05/30 06:43:44;;;;;;;9.13;5.87;;;13.60;1.00;;;;;;5069573;28;20429;-77
2022/05/30 06:46:12;;;;;;;12.17;5.50;;;13.60;1.00;;;;;;5071595;28;20454;-78
2022/05/30 06:48:39;;;;;;;8.70;4.63;;;13.60;1.00;;;;;;5070429;28;20470;-77
2022/05/30 06:51:08;;;;;;;10.10;5.07;;;13.60;1.00;;;;;;5069662;28;20909;-77
2022/05/30 06:53:36;;;;;;;9.27;4.93;;;13.50;1.00;;;;;;5064445;28;20568;-75
2022/05/30 06:56:03;;;;;;;10.53;4.93;;;13.50;1.00;;;;;;5063732;28;20479;-75
2022/05/30 06:58:32;;;;;;;10.60;5.37;;;13.60;1.00;;;;;;5072883;28;20532;-75
2022/05/30 07:01:04;;;;;;;11.00;5.50;;;13.70;1.00;;;;;;5066121;27;20582;-76
2022/05/30 07:03:31;;;;;;;11.87;5.53;;;13.70;1.00;;;;;;5067518;28;20467;-76
2022/05/30 07:06:01;;;;;;;14.40;7.80;;;13.70;1.00;;;;;;5068302;28;23472;-77
2022/05/30 07:08:28;;;;;;;9.50;5.57;;;13.70;1.00;;;;;;5069061;28;21326;-75
2022/05/30 07:10:56;;;;;;;10.60;5.60;;;13.80;1.00;;;;;;5068269;28;20461;-75
2022/05/30 07:13:23;;;;;;;9.53;5.10;;;13.70;1.00;;;;;;5066022;28;20528;-77
2022/05/30 07:15:51;;;;;;;14.30;5.00;;;13.70;1.00;;;;;;5064310;28;20455;-77
2022/05/30 07:18:19;;;;;;;11.30;5.63;;;13.80;1.00;;;;;;5065004;28;20561;-77
2022/05/30 07:20:47;;;;;;;11.27;5.17;;;13.80;1.00;;;;;;5067638;28;21226;-77
2022/05/30 07:23:14;;;;;;;13.20;6.37;;;13.90;1.00;;;;;;5066882;28;20499;-77
2022/05/30 07:25:41;;;;;;;11.33;5.17;;;14.10;1.00;;;;;;5064206;28;20468;-77
2022/05/30 07:28:12;;;;;;;14.30;5.80;;;14.30;1.00;;;;;;5068705;28;20464;-77
2022/05/30 07:30:40;;;;;;;10.60;5.10;;;14.50;1.00;;;;;;5068164;28;20463;-78
2022/05/30 07:33:06;;;;;;;15.30;6.50;;;14.80;1.00;;;;;;5066975;28;20908;-77
2022/05/30 07:35:33;;;;;;;8.50;5.00;;;15.00;1.00;;;;;;5061757;28;20471;-79
2022/05/30 07:38:00;;;;;;;10.07;5.07;;;15.00;1.00;;;;;;5066239;28;20470;-77
2022/05/30 07:40:27;;;;;;;10.50;5.23;;;14.80;1.00;;;;;;5069692;28;20319;-78
2022/05/30 07:42:55;;;;;;;12.73;5.10;;;14.60;1.00;;;;;;5065787;28;20465;-77
2022/05/30 07:45:23;;;;;;;9.60;4.47;;;14.60;1.00;;;;;;5067698;28;20430;-77
2022/05/30 07:47:50;;;;;;;8.27;4.77;;;14.50;1.00;;;;;;5067377;28;20839;-77
2022/05/30 07:50:17;;;;;;;7.20;4.80;;;14.40;1.00;;;;;;5064842;28;20455;-75
2022/05/30 07:52:43;;;;;;;10.93;4.97;;;14.50;1.00;;;;;;5067826;28;20466;-78
2022/05/30 07:55:11;;;;;;;8.03;4.30;;;14.50;1.00;;;;;;5068088;28;20451;-75
2022/05/30 07:57:53;;;;;;;12.17;4.87;;;14.60;1.00;;;;;;5065780;28;20470;-76
2022/05/30 08:00:22;;;;;;;9.40;4.50;;;14.90;1.00;;;;;;5062562;28;20466;-75
2022/05/30 08:02:50;;;;;;;11.30;5.00;;;15.10;1.00;;;;;;5063719;28;20912;-75
2022/05/30 08:05:18;;;;;;;10.03;4.30;;;15.10;1.00;;;;;;5065663;28;20630;-75
2022/05/30 08:07:46;;;;;;;8.73;5.00;;;15.20;1.00;;;;;;5066729;28;20475;-75
2022/05/30 08:10:16;;;;;;;10.20;5.10;;;15.30;1.00;;;;;;5066590;28;20466;-75
2022/05/30 08:12:43;;;;;;;7.30;4.17;;;15.50;1.00;;;;;;5066922;28;20475;-76
2022/05/30 08:15:13;;;;;;;7.93;4.77;;;15.60;1.00;;;;;;5064387;28;20475;-75
2022/05/30 08:17:40;;;;;;;7.93;4.60;;;15.80;1.00;;;;;;5066734;28;20497;-77
2022/05/30 08:20:10;;;;;;;10.80;5.50;;;15.80;1.00;;;;;;5064446;28;20451;-76
2022/05/30 08:22:38;;;;;;;11.40;4.57;;;15.90;1.00;;;;;;5058597;28;20479;-76
2022/05/30 08:25:08;;;;;;;12.43;5.20;;;15.70;1.00;;;;;;5061047;28;20505;-76
2022/05/30 08:27:37;;;;;;;11.07;5.70;;;15.40;1.00;;;;;;5066391;28;20561;-75
2022/05/30 08:30:05;;;;;;;12.93;4.83;;;15.30;1.00;;;;;;5065797;28;21030;-77
2022/05/30 08:32:36;;;;;;;8.73;4.10;;;15.40;1.00;;;;;;5063727;28;20460;-77
2022/05/30 08:35:05;;;;;;;8.03;3.83;;;15.60;1.00;;;;;;5068377;28;21253;-76
2022/05/30 08:37:35;;;;;;;8.33;3.50;;;15.70;1.00;;;;;;5062611;28;20554;-75
2022/05/30 08:42:50;;;;;;;8.50;3.70;;;16.00;1.00;;;;;;5063600;28;20452;-76
2022/05/30 08:45:20;;;;;;;6.77;3.97;;;16.30;1.00;;;;;;5067676;28;20436;-76
2022/05/30 08:47:51;;;;;;;12.77;4.67;;;16.50;1.00;;;;;;5064654;28;20471;-79
2022/05/30 08:50:35;;;;;;;10.00;4.70;;;16.50;1.00;;;;;;5065322;28;20495;-76
2022/05/30 08:53:34;;;;;;;8.40;3.90;;;16.20;1.00;;;;;;5065451;28;20489;-76
2022/05/30 08:56:10;;;;;;;9.80;5.07;;;15.90;1.00;;;;;;5076347;28;20471;-78
2022/05/30 08:58:58;;;;;;;8.20;4.40;;;15.90;1.00;;;;;;5060003;28;20464;-75
2022/05/30 09:01:31;;;;;;;8.80;4.50;;;15.80;1.00;;;;;;5059222;28;20593;-75
2022/05/30 09:04:10;;;;;;;6.90;3.57;;;15.90;1.00;;;;;;5061638;28;20490;-76
2022/05/30 09:06:43;;;;;;;7.83;4.47;;;16.10;1.00;;;;;;5065159;28;20459;-75
2022/05/30 09:09:18;;;;;;;7.30;3.90;;;16.20;1.00;;;;;;5064407;28;20503;-75
2022/05/30 09:11:49;;;;;;;8.23;3.77;;;16.20;1.00;;;;;;5063732;28;20468;-76
2022/05/30 09:14:20;;;;;;;8.37;3.80;;;16.20;1.00;;;;;;5063210;28;20970;-76
2022/05/30 09:16:50;;;;;;;8.03;4.07;;;16.30;1.00;;;;;;5062884;28;20460;-75
2022/05/30 09:19:19;;;;;;;8.63;3.87;;;16.50;1.00;;;;;;5063881;28;20463;-75
2022/05/30 09:21:46;;;;;;;7.13;3.17;;;16.70;1.00;;;;;;5062994;28;20463;-74
2022/05/30 09:24:15;;;;;;;11.13;10.10;;;16.80;1.00;;;;;;5061789;28;20956;-74
2022/05/30 09:26:42;;;;;;;6.77;3.30;;;16.90;1.00;;;;;;5061699;28;20479;-76
2022/05/30 09:29:14;;;;;;;7.90;2.60;;;16.90;1.00;;;;;;5063308;28;20459;-75
2022/05/30 09:31:50;;;;;;;8.47;3.60;;;17.20;1.00;;;;;;5063291;28;20489;-77
2022/05/30 09:34:35;;;;;;;6.87;3.10;;;17.60;1.00;;;;;;5053950;28;20460;-75
2022/05/30 09:37:02;;;;;;;13.17;4.27;;;17.90;1.00;;;;;;5063948;28;20874;-74
2022/05/30 09:39:29;;;;;;;7.53;3.00;;;18.80;1.00;;;;;;5063542;28;20478;-76
2022/05/30 09:41:58;;;;;;;8.60;2.40;;;20.40;1.00;;;;;;5065721;28;20917;-76
2022/05/30 09:44:41;;;;;;;10.03;2.80;;;21.60;1.00;;;;;;5065784;28;20466;-79
2022/05/30 09:47:16;;;;;;;8.20;2.43;;;23.10;1.00;;;;;;5063265;28;20852;-76
2022/05/30 09:49:45;;;;;;;7.10;2.60;;;24.40;1.00;;;;;;5065379;28;20483;-77
2022/05/30 09:52:36;;;;;;;8.03;2.43;;;25.30;1.00;;;;;;5066572;28;20494;-76
2022/05/30 09:55:25;;;;;;;7.73;2.20;;;26.00;1.00;;;;;;5065241;28;20463;-75
2022/05/30 09:57:53;;;;;;;7.33;2.70;;;25.30;1.00;;;;;;5064902;28;20479;-74
2022/05/30 10:00:40;;;;;;;9.77;2.60;;;24.90;1.00;;;;;;5063055;28;20926;-75
2022/05/30 10:03:12;;;;;;;8.43;2.53;;;25.60;1.00;;;;;;5062503;28;20449;-75
2022/05/30 10:05:40;;;;;;;8.13;2.30;;;26.20;1.00;;;;;;5066451;28;20529;-74
2022/05/30 10:08:23;;;;;;;8.80;1.97;;;26.50;1.00;;;;;;5065970;28;20443;-75
2022/05/30 10:10:52;;;;;;;8.43;2.37;;;25.80;1.00;;;;;;5063647;28;20487;-76
2022/05/30 10:13:34;;;;;;;10.40;3.23;;;24.90;1.00;;;;;;5065515;28;20492;-77
2022/05/30 10:16:05;;;;;;;6.40;1.67;;;23.70;1.00;;;;;;5062116;28;20567;-76
2022/05/30 10:18:35;;;;;;;7.40;1.80;;;22.60;1.00;;;;;;5062878;28;20490;-75
2022/05/30 10:21:22;;;;;;;6.87;1.93;;;21.90;1.00;;;;;;5064992;28;20472;-76
2022/05/30 10:30:06;;;;;;;9.07;1.67;;;20.60;1.00;;;;;;5068220;28;20939;-75
2022/05/30 10:32:41;;;;;;;8.00;2.50;;;20.30;1.00;;;;;;5069805;28;20538;-76
2022/05/30 10:35:24;;;;;;;6.33;1.80;;;20.90;1.00;;;;;;5068821;28;20470;-75
2022/05/30 10:38:12;;;;;;;7.57;2.30;;;21.20;1.00;;;;;;5069808;28;20539;-75
2022/05/30 10:40:49;;;;;;;6.33;1.87;;;20.70;1.00;;;;;;5066124;28;20471;-74
2022/05/30 10:43:21;;;;;;;8.10;3.63;;;20.40;1.00;;;;;;5059973;28;20462;-74
2022/05/30 10:45:51;;;;;;;5.90;1.80;;;19.90;1.00;;;;;;5067940;28;20478;-75
2022/05/30 10:48:26;;;;;;;6.57;1.97;;;19.50;1.00;;;;;;5064845;28;20542;-75
2022/05/30 10:50:59;;;;;;;5.60;1.80;;;19.30;1.00;;;;;;5061476;28;20525;-76
2022/05/30 10:53:33;;;;;;;8.17;2.30;;;19.00;1.00;;;;;;5065914;28;20499;-76
2022/05/30 10:56:15;;;;;;;6.67;3.50;;;18.70;1.00;;;;;;5062481;28;20930;-76
2022/05/30 10:58:47;;;;;;;7.67;1.93;;;18.80;1.00;;;;;;5068062;28;20603;-76
2022/05/30 11:01:31;;;;;;;5.50;1.30;;;18.90;1.00;;;;;;5062541;28;20955;-75
2022/05/30 11:04:10;;;;;;;7.83;1.43;;;19.10;1.00;;;;;;5065472;28;20503;-76
2022/05/30 11:06:42;;;;;;;5.90;1.50;;;19.80;1.00;;;;;;5067034;28;21515;-75
2022/05/30 11:09:17;;;;;;;7.37;1.67;;;20.60;1.00;;;;;;5066054;28;20479;-75
2022/05/30 11:11:50;;;;;;;7.53;2.17;;;20.50;1.00;;;;;;5065181;28;20952;-75
2022/05/30 11:14:27;;;;;;;5.70;1.47;;;20.20;1.00;;;;;;5057191;28;20560;-75
2022/05/30 11:17:00;;;;;;;5.77;1.33;;;20.90;1.00;;;;;;5066178;28;20452;-76
2022/05/30 11:19:38;;;;;;;6.67;1.10;;;23.00;1.00;;;;;;5066821;28;20467;-76
2022/05/30 11:22:13;;;;;;;6.83;1.60;;;25.40;1.00;;;;;;5065172;28;20443;-75
2022/05/30 11:24:40;;;;;;;6.03;1.50;;;27.20;1.00;;;;;;5065309;28;20462;-76
2022/05/30 11:27:40;;;;;;;7.40;2.10;;;26.60;1.00;;;;;;5067178;28;20475;-76
2022/05/30 11:30:28;;;;;;;5.93;1.40;;;26.20;1.00;;;;;;5060013;28;20435;-76
2022/05/30 11:33:23;;;;;;;5.50;1.40;;;25.60;1.00;;;;;;5062101;28;20467;-76
2022/05/30 11:36:01;;;;;;;7.80;1.90;;;23.50;1.00;;;;;;5056840;28;20506;-75
2022/05/30 11:38:47;;;;;;;6.33;1.60;;;21.70;1.00;;;;;;5078310;28;20467;-76
2022/05/30 11:41:30;;;;;;;6.30;1.70;;;20.50;1.00;;;;;;5065638;28;20455;-77
2022/05/30 11:44:12;;;;;;;8.80;1.80;;;20.10;1.00;;;;;;5065957;28;20467;-76
2022/05/30 11:46:54;;;;;;;7.03;1.80;;;19.80;1.00;;;;;;5063654;28;20982;-75
2022/05/30 11:49:30;;;;;;;6.13;1.30;;;20.00;1.00;;;;;;5062228;28;20444;-75
2022/05/30 11:52:18;;;;;;;9.10;1.67;;;19.90;1.00;;;;;;5064171;28;20491;-75
2022/05/30 11:55:00;;;;;;;7.60;1.60;;;19.60;1.00;;;;;;5067450;28;20468;-76
2022/05/30 11:57:37;;;;;;;6.13;1.63;;;19.60;1.00;;;;;;5069531;28;20481;-75
2022/05/30 12:00:22;;;;;;;6.23;1.67;;;20.50;1.00;;;;;;5064176;28;20475;-75
2022/05/30 12:03:11;;;;;;;7.00;1.97;;;20.70;1.00;;;;;;5068073;28;20494;-76
2022/05/30 12:06:09;;;;;;;6.00;1.47;;;20.20;1.00;;;;;;5069553;28;20455;-75
2022/05/30 12:09:14;;;;;;;5.60;1.50;;;19.30;1.00;;;;;;5069073;28;20673;-75
2022/05/30 12:12:03;;;;;;;7.60;2.00;;;19.00;1.00;;;;;;5064608;28;20461;-77
2022/05/30 12:15:06;;;;;;;7.77;2.40;;;19.20;1.00;;;;;;5068499;28;20525;-77
2022/05/30 12:24:34;;;;;;;6.63;1.87;;;20.00;1.00;;;;;;5064818;28;20462;-76
2022/05/30 12:27:32;;;;;;;7.63;1.57;;;22.60;1.00;;;;;;5069603;28;20468;-75
2022/05/30 12:30:00;;;;;;;7.30;2.33;;;23.00;1.00;;;;;;5063593;28;20984;-76
2022/05/30 12:32:39;;;;;;;8.30;1.67;;;24.50;1.00;;;;;;5069652;28;20517;-74
2022/05/30 12:35:28;;;;;;;6.13;1.50;;;24.40;1.00;;;;;;5064199;28;20451;-76
2022/05/30 12:38:17;;;;;;;6.33;1.23;;;25.20;1.00;;;;;;5066731;28;20491;-76
2022/05/30 12:40:52;;;;;;;6.47;1.80;;;27.30;1.00;;;;;;5067680;28;20467;-75
2022/05/30 12:43:43;;;;;;;8.30;1.70;;;28.00;1.00;;;;;;5067247;28;21496;-76
2022/05/30 12:46:14;;;;;;;7.27;2.20;;;26.50;1.00;;;;;;5069577;28;20848;-76
2022/05/30 12:48:46;;;;;;;6.63;1.47;;;25.30;1.00;;;;;;5066246;28;20486;-76
2022/05/30 12:51:20;;;;;;;8.33;1.70;;;25.60;1.00;;;;;;5063097;28;20616;-76
2022/05/30 12:54:26;;;;;;;6.80;1.73;;;27.00;1.00;;;;;;5065595;28;20540;-76
2022/05/30 12:57:12;;;;;;;8.77;2.20;;;28.60;1.00;;;;;;5058574;28;20587;-76
2022/05/30 13:00:05;;;;;;;6.10;1.57;;;30.10;1.00;;;;;;5067753;28;20458;-77
2022/05/30 13:03:03;;;;;;;7.20;1.80;;;30.20;1.00;;;;;;5060466;28;21039;-77
2022/05/30 13:05:44;;;;;;;6.13;1.50;;;28.10;1.00;;;;;;5044851;28;20476;-77
2022/05/30 13:08:46;;;;;;;6.70;1.77;;;26.50;1.00;;;;;;5058220;28;20483;-76
2022/05/30 13:11:22;;;;;;;6.40;2.13;;;26.10;1.00;;;;;;5064139;28;20525;-78
2022/05/30 13:13:54;;;;;;;5.97;1.60;;;25.60;1.00;;;;;;5062977;28;20455;-76
2022/05/30 13:16:30;;;;;;;5.53;1.37;;;25.20;1.00;;;;;;5068834;28;21050;-75
2022/05/30 13:18:57;;;;;;;5.97;1.50;;;25.00;1.00;;;;;;5071336;28;20532;-77
2022/05/30 13:21:27;;;;;;;7.70;2.00;;;24.50;1.00;;;;;;5070483;28;20444;-75
2022/05/30 13:23:55;;;;;;;6.60;1.80;;;23.80;1.00;;;;;;5068289;27;20460;-76
2022/05/30 13:26:22;;;;;;;7.40;1.90;;;23.30;1.00;;;;;;5067672;28;21275;-76
2022/05/30 13:28:50;;;;;;;7.83;1.80;;;23.10;1.00;;;;;;5072029;28;20468;-78
2022/05/30 13:31:21;;;;;;;7.70;2.20;;;22.70;1.00;;;;;;5073633;28;21165;-77
2022/05/30 13:33:52;;;;;;;5.90;1.40;;;22.40;1.00;;;;;;5070155;28;20463;-78
2022/05/30 13:36:24;;;;;;;7.53;1.47;;;22.80;1.00;;;;;;5072460;28;20501;-76
2022/05/30 13:38:56;;;;;;;7.63;2.20;;;23.10;1.00;;;;;;5063763;28;20541;-77
2022/05/30 13:41:29;;;;;;;8.10;2.80;;;22.80;1.00;;;;;;5074840;28;20553;-76